createdAt,value
2023-01-13T00:03:48.535Z,132.3792
2023-01-13T00:08:49.509Z,131.23404
2023-01-13T00:13:50.482Z,131.80488
2023-01-13T00:18:51.475Z,132.3792
2023-01-13T00:23:52.463Z,128.98498
2023-01-13T00:28:53.426Z,132.3792
2023-01-13T00:33:54.405Z,130.66667
2023-01-13T00:38:55.367Z,130.66667
2023-01-13T00:43:56.341Z,132.95706
2023-01-13T00:48:57.315Z,131.23404
2023-01-13T00:53:58.261Z,131.80488
2023-01-13T00:58:59.228Z,131.80488
2023-01-13T01:04:00.255Z,131.23404
2023-01-13T01:09:01.317Z,131.80488
2023-01-13T01:14:02.394Z,130.66667
2023-01-13T01:19:03.392Z,128.98498
2023-01-13T01:24:04.458Z,131.80488
2023-01-13T01:29:05.392Z,131.23404
2023-01-13T01:34:06.376Z,131.80488
2023-01-13T01:39:07.335Z,132.3792
2023-01-13T01:44:08.332Z,127.8806
2023-01-13T01:49:09.408Z,130.10272
2023-01-13T01:54:10.352Z,130.10272
2023-01-13T01:59:11.339Z,133.53846
2023-01-13T02:04:12.332Z,132.3792
2023-01-13T02:09:13.322Z,132.95706
2023-01-13T02:14:14.279Z,134.71207
2023-01-13T02:19:15.222Z,132.3792
2023-01-13T02:24:16.231Z,133.53846
2023-01-13T02:29:17.182Z,133.53846
2023-01-13T02:34:18.171Z,132.3792
2023-01-13T02:39:19.201Z,133.53846
2023-01-13T02:44:20.255Z,132.95706
2023-01-13T02:49:21.214Z,131.23404
2023-01-13T02:54:22.181Z,130.66667
2023-01-13T02:59:23.109Z,129.54217
2023-01-13T03:04:24.074Z,128.98498
2023-01-13T03:09:25.137Z,131.23404
2023-01-13T03:14:26.045Z,130.66667
2023-01-13T03:19:27.078Z,132.3792
2023-01-13T03:24:28.060Z,134.71207
2023-01-13T03:29:28.984Z,132.95706
2023-01-13T03:34:31.220Z,132.3792
2023-01-13T03:39:32.272Z,131.23404
2023-01-13T03:44:33.323Z,132.95706
2023-01-13T03:49:34.261Z,132.3792
2023-01-13T03:54:35.252Z,132.3792
2023-01-13T03:59:36.270Z,133.53846
2023-01-13T04:04:37.268Z,131.23404
2023-01-13T04:09:38.182Z,132.95706
2023-01-13T04:14:39.406Z,131.23404
2023-01-13T04:19:40.645Z,134.12346
2023-01-13T04:24:41.631Z,132.3792
2023-01-13T04:29:42.599Z,131.23404
2023-01-13T04:34:43.579Z,130.66667
2023-01-13T04:39:44.517Z,131.23404
2023-01-13T04:44:45.412Z,132.95706
2023-01-13T04:49:46.356Z,131.80488
2023-01-13T04:54:47.307Z,131.80488
2023-01-13T04:59:48.240Z,128.43114
2023-01-13T05:04:49.234Z,130.10272
2023-01-13T05:09:50.186Z,130.66667
2023-01-13T05:14:51.090Z,132.3792
2023-01-13T05:19:52.048Z,127.33333
2023-01-13T05:24:53.036Z,126.24852
2023-01-13T05:29:53.981Z,123.59184
2023-01-13T05:34:55.000Z,124.11696
2023-01-13T05:39:55.942Z,123.59184
2023-01-13T05:44:56.924Z,124.11696
2023-01-13T05:49:57.885Z,127.33333
2023-01-13T05:54:58.823Z,125.71091
2023-01-13T05:59:59.765Z,127.8806
2023-01-13T06:05:00.707Z,126.24852
2023-01-13T06:10:01.651Z,125.17647
2023-01-13T06:15:02.682Z,127.33333
2023-01-13T06:20:03.619Z,126.78932
2023-01-13T06:25:04.591Z,128.98498
2023-01-13T06:30:05.555Z,131.23404
2023-01-13T06:35:06.460Z,130.66667
2023-01-13T06:40:07.417Z,134.12346
2023-01-13T06:45:08.368Z,132.95706
2023-01-13T06:50:09.284Z,130.10272
2023-01-13T06:55:10.269Z,127.8806
2023-01-13T07:00:11.260Z,124.64516
2023-01-13T07:05:12.180Z,124.11696
2023-01-13T07:10:13.173Z,129.54217
2023-01-13T07:15:14.062Z,128.98498
2023-01-13T07:20:15.087Z,132.3792
2023-01-13T07:25:16.265Z,130.10272
2023-01-13T07:30:17.886Z,130.10272
2023-01-13T07:35:18.882Z,135.90031
2023-01-13T07:40:19.872Z,136.5
2023-01-13T07:45:20.921Z,142.07074
2023-01-13T07:50:21.881Z,142.07074
2023-01-13T07:55:23.032Z,145.30719
2023-01-13T08:00:23.998Z,146.63158
2023-01-13T08:05:24.937Z,145.96721
2023-01-13T08:10:25.915Z,146.63158
2023-01-13T08:15:26.866Z,145.30719
2023-01-13T08:20:27.912Z,140.80511
2023-01-13T08:25:28.811Z,141.4359
2023-01-13T08:30:29.928Z,138.93671
2023-01-13T08:35:30.950Z,138.32177
2023-01-13T08:40:31.892Z,137.71069
2023-01-13T08:45:32.879Z,137.10345
2023-01-13T08:50:33.883Z,137.71069
2023-01-13T08:55:34.806Z,139.55556
2023-01-13T09:00:35.808Z,140.80511
2023-01-13T09:05:36.731Z,141.4359
2023-01-13T09:10:37.688Z,139.55556
2023-01-13T09:15:38.712Z,142.70968
2023-01-13T09:20:39.968Z,138.32177
2023-01-13T09:25:41.035Z,137.71069
2023-01-13T09:30:41.975Z,140.17834
2023-01-13T09:35:42.896Z,138.93671
2023-01-13T09:40:44.068Z,141.4359
2023-01-13T09:45:45.139Z,135.30435
2023-01-13T09:50:46.092Z,134.71207
2023-01-13T09:55:47.036Z,132.3792
2023-01-13T10:00:47.986Z,132.95706
2023-01-13T10:05:48.970Z,136.5
2023-01-13T10:10:49.935Z,138.93671
2023-01-13T10:15:50.936Z,139.55556
2023-01-13T10:20:51.896Z,142.70968
2023-01-13T10:25:52.960Z,142.07074
2023-01-13T10:30:53.922Z,144.0
2023-01-13T10:35:54.842Z,142.07074
2023-01-13T10:40:55.802Z,144.0
2023-01-13T10:45:56.787Z,146.63158
2023-01-13T10:50:57.766Z,147.30033
2023-01-13T10:55:58.720Z,149.33333
2023-01-13T11:01:04.843Z,150.02007
2023-01-13T11:06:05.770Z,147.97351
2023-01-13T11:11:06.687Z,141.4359
2023-01-13T11:16:07.654Z,142.07074
2023-01-13T11:21:08.587Z,142.70968
2023-01-13T11:26:09.531Z,141.4359
2023-01-13T11:31:10.563Z,137.71069
2023-01-13T11:36:11.575Z,142.07074
2023-01-13T11:41:12.532Z,142.07074
2023-01-13T11:46:13.459Z,138.93671
2023-01-13T11:51:14.428Z,134.71207
2023-01-13T11:56:15.366Z,140.17834
2023-01-13T12:01:16.370Z,136.5
2023-01-13T12:06:17.290Z,130.66667
2023-01-13T12:11:18.251Z,134.12346
2023-01-13T12:16:19.282Z,137.71069
2023-01-13T12:21:20.249Z,150.71141
2023-01-13T12:26:21.163Z,145.30719
2023-01-13T12:31:22.370Z,145.96721
2023-01-13T12:36:23.353Z,135.30435
2023-01-13T12:41:24.291Z,131.23404
2023-01-13T12:46:25.213Z,124.64516
2023-01-13T12:51:26.252Z,121.01149
2023-01-13T12:56:27.182Z,118.50425
2023-01-13T13:01:28.247Z,121.01149
2023-01-13T13:06:29.256Z,127.8806
2023-01-13T13:11:30.169Z,146.63158
2023-01-13T13:16:31.137Z,154.23891
2023-01-13T13:21:32.165Z,163.21708
2023-01-13T13:26:33.090Z,155.68385
2023-01-13T13:31:34.124Z,158.63415
2023-01-13T13:36:35.035Z,164.0
2023-01-13T13:41:35.988Z,172.99628
2023-01-13T13:46:36.929Z,176.45283
2023-01-13T13:51:39.290Z,167.18841
2023-01-13T13:56:41.252Z,168.0
2023-01-13T14:01:42.271Z,168.0
2023-01-13T14:06:43.285Z,168.0
2023-01-13T14:11:44.183Z,170.47059
2023-01-13T14:16:45.099Z,168.81752
2023-01-13T14:21:46.043Z,169.64103
2023-01-13T14:26:46.985Z,167.18841
2023-01-13T14:31:47.940Z,168.81752
2023-01-13T14:36:48.844Z,169.64103
2023-01-13T14:41:49.805Z,167.18841
2023-01-13T14:46:50.730Z,172.14815
2023-01-13T14:51:51.728Z,171.30627
2023-01-13T14:56:57.658Z,164.78853
2023-01-13T15:01:58.762Z,165.58273
2023-01-13T15:06:59.754Z,168.0
2023-01-13T15:12:00.663Z,172.99628
2023-01-13T15:17:01.951Z,170.47059
2023-01-13T15:22:02.928Z,171.30627
2023-01-13T15:27:03.875Z,172.99628
2023-01-13T15:32:04.777Z,175.57895
2023-01-13T15:37:05.797Z,173.85075
2023-01-13T15:42:06.729Z,175.57895
2023-01-13T15:47:07.680Z,174.71161
2023-01-13T15:52:08.627Z,178.22053
2023-01-13T15:57:09.528Z,176.45283
2023-01-13T16:02:10.487Z,173.85075
2023-01-13T16:07:11.398Z,176.45283
2023-01-13T16:12:12.419Z,180.92308
2023-01-13T16:17:13.364Z,171.30627
2023-01-13T16:22:14.570Z,168.81752
2023-01-13T16:27:15.660Z,170.47059
2023-01-13T16:32:16.943Z,167.18841
2023-01-13T16:37:17.987Z,168.81752
2023-01-13T16:42:19.042Z,167.18841
2023-01-13T16:47:20.004Z,164.0
2023-01-13T16:52:20.937Z,162.43972
2023-01-13T16:57:21.950Z,168.0
2023-01-13T17:02:22.906Z,168.81752
2023-01-13T17:07:23.897Z,168.81752
2023-01-13T17:12:24.860Z,164.0
2023-01-13T17:17:25.790Z,167.18841
2023-01-13T17:22:26.748Z,168.0
2023-01-13T17:27:27.893Z,169.64103
2023-01-13T17:32:28.870Z,169.64103
2023-01-13T17:37:29.785Z,164.0
2023-01-13T17:42:30.784Z,168.0
2023-01-13T17:47:31.809Z,162.43972
2023-01-13T17:52:32.760Z,163.21708
2023-01-13T17:57:33.736Z,165.58273
2023-01-13T18:02:34.750Z,168.81752
2023-01-13T18:07:35.716Z,167.18841
2023-01-13T18:12:36.602Z,164.0
2023-01-13T18:17:37.734Z,167.18841
2023-01-13T18:22:38.696Z,164.0
2023-01-13T18:27:39.788Z,160.90141
2023-01-13T18:32:41.083Z,160.14035
2023-01-13T18:37:42.138Z,160.90141
2023-01-13T18:42:43.214Z,164.78853
2023-01-13T18:47:44.264Z,162.43972
2023-01-13T18:52:45.263Z,165.58273
2023-01-13T18:57:46.172Z,161.66784
2023-01-13T19:02:47.249Z,161.66784
2023-01-13T19:07:48.240Z,164.0
2023-01-13T19:12:49.207Z,165.58273
2023-01-13T19:17:50.293Z,163.21708
2023-01-13T19:22:51.230Z,161.66784
2023-01-13T19:27:52.172Z,168.81752
2023-01-13T19:32:53.124Z,165.58273
2023-01-13T19:37:54.013Z,160.90141
2023-01-13T19:42:54.949Z,164.78853
2023-01-13T19:47:55.897Z,165.58273
2023-01-13T19:52:56.819Z,168.81752
2023-01-13T19:57:57.708Z,168.81752
2023-01-13T20:02:58.695Z,164.0
2023-01-13T20:07:59.651Z,162.43972
2023-01-13T20:13:00.692Z,161.66784
2023-01-13T20:18:01.642Z,161.66784
2023-01-13T20:23:02.576Z,162.43972
2023-01-13T20:28:03.481Z,165.58273
2023-01-13T20:33:04.469Z,161.66784
2023-01-13T20:38:05.426Z,165.58273
2023-01-13T20:43:06.364Z,169.64103
2023-01-13T20:48:08.011Z,169.64103
2023-01-13T20:53:08.967Z,165.58273
2023-01-13T20:58:10.090Z,166.38267
2023-01-13T21:03:11.027Z,172.99628
2023-01-13T21:08:11.929Z,174.71161
2023-01-13T21:13:13.250Z,170.47059
2023-01-13T21:18:14.192Z,169.64103
2023-01-13T21:23:15.194Z,167.18841
2023-01-13T21:28:16.116Z,169.64103
2023-01-13T21:33:17.076Z,170.47059
2023-01-13T21:38:18.020Z,170.47059
2023-01-13T21:43:18.947Z,170.47059
2023-01-13T21:48:19.916Z,172.99628
2023-01-13T21:53:20.843Z,172.14815
2023-01-13T21:58:21.774Z,172.14815
2023-01-13T22:03:22.750Z,167.18841
2023-01-13T22:08:23.699Z,168.0
2023-01-13T22:13:24.672Z,163.21708
2023-01-13T22:18:25.608Z,161.66784
2023-01-13T22:23:26.526Z,167.18841
2023-01-13T22:28:27.432Z,168.0
2023-01-13T22:33:28.420Z,168.81752
2023-01-13T22:38:29.328Z,164.0
2023-01-13T22:43:30.269Z,165.58273
2023-01-13T22:48:31.193Z,167.18841
2023-01-13T22:53:32.269Z,163.21708
2023-01-13T22:58:33.193Z,161.66784
2023-01-13T23:03:34.201Z,163.21708
2023-01-13T23:08:35.164Z,165.58273
2023-01-13T23:13:36.086Z,167.18841
2023-01-13T23:18:36.985Z,165.58273
2023-01-13T23:23:37.938Z,164.0
2023-01-13T23:28:38.909Z,162.43972
2023-01-13T23:33:40.123Z,161.66784
2023-01-13T23:38:41.341Z,160.14035
2023-01-13T23:43:42.322Z,164.0
2023-01-13T23:48:43.287Z,161.66784
2023-01-13T23:53:44.237Z,164.78853
